Airport View

Enter AWOS ICAO identifier for current METAR.

ex. KFNL

KMWO 080855Z AUTO 24010G16KT 10SM OVC026 21/17 A2967 RMK AO2 LTG DSNT E T02070166

8 Apr 2020 09:15

Frequency: 120.025

Phone: 513-422-3505

Other Area AWOS: KMGY - KHAO - KOXD - KI19

TAF AMD KDAY 080900Z 0809/0906 30010KT P6SM SCT010 BKN017 OVC030 FM081400 33008KT P6SM BKN050 FM082300 22011KT P6SM VCSH BKN050 FM090200 25012KT P6SM -SHRA VCTS BKN035CB